Time;durP1;ratioP1;P1;durP2;ratioP2;P2;SDS_P1;SDS_P2;PMS_P1;PMS_P2;Temp;Humidity;BMP_temperature;BMP_pressure;BME280_temperature;BME280_humidity;BME280_pressure;Samples;Min_cycle;Max_cycle;Signal;HPM_P1;HPM_P2
2022/08/04 00:00:07;;;;;;;6.10;2.97;;;19.50;99.90;;;;;;4845836;29;20065;-66
2022/08/04 00:03:26;;;;;;;8.88;3.20;;;19.40;99.90;;;;;;4861653;29;20054;-66
2022/08/04 00:06:06;;;;;;;5.18;2.55;;;19.40;99.90;;;;;;4785341;30;20527;-66
2022/08/04 00:08:47;;;;;;;5.75;2.95;;;19.40;99.90;;;;;;4769420;29;20101;-66
2022/08/04 00:11:25;;;;;;;5.47;3.00;;;19.40;99.90;;;;;;4841689;29;20070;-66
2022/08/04 00:14:03;;;;;;;10.75;3.28;;;19.40;99.90;;;;;;4860978;29;20054;-66
2022/08/04 00:16:34;;;;;;;8.18;3.22;;;19.30;99.90;;;;;;4861147;29;20053;-66
2022/08/04 00:19:03;;;;;;;7.43;3.80;;;19.30;99.90;;;;;;4861029;29;20057;-66
2022/08/04 00:21:31;;;;;;;5.55;3.38;;;19.30;99.90;;;;;;4825463;29;20086;-66
2022/08/04 00:23:59;;;;;;;4.78;3.03;;;19.30;99.90;;;;;;4844432;29;20070;-67
2022/08/04 00:26:25;;;;;;;9.55;4.13;;;19.40;99.90;;;;;;4862258;29;20106;-66
2022/08/04 00:28:51;;;;;;;8.30;4.35;;;19.30;99.90;;;;;;4862432;29;20053;-66
2022/08/04 00:31:18;;;;;;;6.25;4.30;;;19.10;99.90;;;;;;4860805;29;20236;-66
2022/08/04 00:33:45;;;;;;;7.95;4.25;;;19.30;99.90;;;;;;4852937;29;20057;-66
2022/08/04 00:36:12;;;;;;;9.93;3.80;;;19.30;99.90;;;;;;4859578;29;20056;-66
2022/08/04 00:38:40;;;;;;;6.93;3.17;;;19.30;99.90;;;;;;4862048;29;20068;-66
2022/08/04 00:41:06;;;;;;;9.30;4.55;;;19.30;99.90;;;;;;4846826;29;20182;-66
2022/08/04 00:43:33;;;;;;;5.53;3.47;;;19.30;99.90;;;;;;4842534;29;20539;-66
2022/08/04 00:46:37;;;;;;;7.57;4.57;;;19.30;99.90;;;;;;4847459;29;20068;-66
2022/08/04 00:49:31;;;;;;;8.30;4.45;;;19.30;99.90;;;;;;4831582;29;20205;-66
2022/08/04 00:52:27;;;;;;;5.53;4.22;;;19.30;99.90;;;;;;4857032;29;20072;-66
2022/08/04 00:55:45;;;;;;;10.30;4.90;;;19.20;99.90;;;;;;4844055;29;20071;-66
2022/08/04 00:59:01;;;;;;;8.90;5.10;;;19.10;99.90;;;;;;4860342;29;20587;-66
2022/08/04 01:02:16;;;;;;;7.82;5.18;;;19.30;99.90;;;;;;4850212;29;20058;-66
2022/08/04 01:12:28;;;;;;;8.10;5.25;;;18.20;99.90;;;;;;4795689;29;20152;-66
2022/08/04 01:15:01;;;;;;;9.48;4.97;;;19.20;99.90;;;;;;4775567;30;20086;-66
2022/08/04 01:21:13;;;;;;;11.32;5.10;;;19.10;99.90;;;;;;4801828;29;20171;-66
2022/08/04 01:23:44;;;;;;;13.40;5.72;;;19.10;99.90;;;;;;4786361;30;20055;-66
2022/08/04 01:26:52;;;;;;;10.63;5.15;;;19.10;99.90;;;;;;4811793;29;20080;-66
2022/08/04 01:29:25;;;;;;;11.60;5.32;;;19.10;99.90;;;;;;4853745;29;20145;-66
2022/08/04 01:32:35;;;;;;;10.00;4.93;;;19.10;99.90;;;;;;4830063;29;20065;-66
2022/08/04 01:35:22;;;;;;;10.60;5.35;;;19.00;99.90;;;;;;4767524;30;20152;-66
2022/08/04 01:37:48;;;;;;;10.50;5.20;;;19.00;99.90;;;;;;4785402;30;20047;-66
2022/08/04 01:40:15;;;;;;;12.30;5.38;;;18.90;99.90;;;;;;4834699;29;20068;-66
2022/08/04 01:42:42;;;;;;;7.85;4.70;;;19.00;99.90;;;;;;4860098;29;20503;-66
2022/08/04 01:45:10;;;;;;;9.25;5.25;;;18.90;99.90;;;;;;4860243;29;20144;-66
2022/08/04 01:47:39;;;;;;;12.77;5.60;;;19.00;99.90;;;;;;4858586;29;20114;-66
2022/08/04 01:50:10;;;;;;;11.40;5.57;;;18.90;99.90;;;;;;4843193;29;20081;-66
2022/08/04 01:52:38;;;;;;;10.07;5.05;;;18.90;99.90;;;;;;4859667;29;20061;-66
2022/08/04 01:55:08;;;;;;;9.93;6.20;;;18.90;99.90;;;;;;4860092;29;20129;-66
2022/08/04 01:57:36;;;;;;;7.25;4.60;;;18.90;99.90;;;;;;4857520;29;20407;-66
2022/08/04 02:00:04;;;;;;;9.55;5.45;;;18.90;99.90;;;;;;4860848;29;20118;-66
2022/08/04 02:02:29;;;;;;;6.65;4.82;;;18.90;99.90;;;;;;4858434;29;20058;-66
2022/08/04 02:04:55;;;;;;;7.22;5.30;;;18.90;99.90;;;;;;4859656;29;20404;-66
2022/08/04 02:08:00;;;;;;;12.20;5.72;;;18.80;99.90;;;;;;4857837;29;20041;-66
2022/08/04 02:10:33;;;;;;;11.23;4.65;;;18.80;99.90;;;;;;4859948;29;20058;-67
2022/08/04 02:13:07;;;;;;;9.82;5.75;;;18.80;99.90;;;;;;4859482;29;20053;-65
2022/08/04 02:15:41;;;;;;;9.07;5.47;;;18.80;99.90;;;;;;4864902;29;20507;-66
2022/08/04 02:18:26;;;;;;;11.60;5.20;;;18.80;99.90;;;;;;4849426;29;20065;-66
2022/08/04 02:21:00;;;;;;;9.52;5.85;;;18.80;99.90;;;;;;4864614;29;20376;-65
2022/08/04 02:23:39;;;;;;;7.75;5.75;;;18.80;99.90;;;;;;4866160;29;20061;-66
2022/08/04 02:26:12;;;;;;;9.57;5.47;;;18.70;99.90;;;;;;4864948;29;20060;-65
2022/08/04 02:28:50;;;;;;;9.93;4.75;;;18.70;99.90;;;;;;4866723;29;20085;-66
2022/08/04 02:31:34;;;;;;;7.75;5.50;;;18.80;99.90;;;;;;4865039;29;20406;-66
2022/08/04 02:34:04;;;;;;;8.23;5.30;;;18.70;99.90;;;;;;4856393;29;20064;-65
2022/08/04 02:36:37;;;;;;;9.70;5.35;;;18.70;99.90;;;;;;4846555;29;20068;-66
2022/08/04 02:39:10;;;;;;;7.07;5.35;;;18.70;99.90;;;;;;4847778;29;20058;-66
2022/08/04 02:41:38;;;;;;;7.30;5.20;;;18.60;99.90;;;;;;4857790;29;20057;-66
2022/08/04 02:44:09;;;;;;;11.18;6.03;;;18.60;99.90;;;;;;4866606;29;20447;-66
2022/08/04 02:46:36;;;;;;;11.80;5.78;;;18.70;99.90;;;;;;4856422;29;20054;-66
2022/08/04 02:49:08;;;;;;;7.80;5.32;;;18.60;99.90;;;;;;4852896;29;20114;-66
2022/08/04 02:51:42;;;;;;;9.38;5.72;;;18.70;99.90;;;;;;4859856;29;20124;-66
2022/08/04 02:54:08;;;;;;;7.18;5.05;;;18.60;99.90;;;;;;4828695;29;20408;-66
2022/08/04 02:56:35;;;;;;;9.90;5.35;;;18.60;99.90;;;;;;4839671;29;20046;-66
2022/08/04 02:59:05;;;;;;;7.50;4.93;;;18.60;99.90;;;;;;4860055;29;20053;-66
2022/08/04 03:01:32;;;;;;;9.05;5.47;;;18.50;99.90;;;;;;4848735;29;20489;-65
2022/08/04 03:04:31;;;;;;;10.02;5.55;;;18.50;99.90;;;;;;4856075;29;20068;-65
2022/08/04 03:07:20;;;;;;;8.90;5.15;;;18.60;99.90;;;;;;4847488;29;20062;-66
2022/08/04 03:10:23;;;;;;;7.50;5.22;;;18.50;99.90;;;;;;4835801;29;20060;-65
2022/08/04 03:13:03;;;;;;;10.40;5.20;;;18.60;99.90;;;;;;4848248;29;20061;-66
2022/08/04 03:16:02;;;;;;;7.25;5.22;;;18.50;99.90;;;;;;4847672;29;20050;-66
2022/08/04 03:19:13;;;;;;;8.57;5.57;;;18.50;99.90;;;;;;4847246;29;20060;-66
2022/08/04 03:21:51;;;;;;;7.47;4.95;;;18.50;99.90;;;;;;4838414;29;20093;-66
2022/08/04 03:24:48;;;;;;;7.85;5.38;;;18.50;99.90;;;;;;4845415;29;20133;-66
2022/08/04 03:27:23;;;;;;;7.85;5.13;;;18.50;99.90;;;;;;4844295;29;20050;-66
2022/08/04 03:30:05;;;;;;;12.00;5.00;;;18.40;99.90;;;;;;4844264;29;20097;-65
2022/08/04 03:32:36;;;;;;;8.65;5.38;;;18.50;99.90;;;;;;4857207;29;20460;-65
2022/08/04 03:39:29;;;;;;;11.88;5.30;;;18.50;99.90;;;;;;4862928;29;20140;-66
2022/08/04 03:42:16;;;;;;;7.63;4.63;;;18.50;99.90;;;;;;4861715;29;20101;-66
2022/08/04 03:45:19;;;;;;;8.63;5.35;;;18.40;99.90;;;;;;4859271;29;20056;-66
2022/08/04 03:48:03;;;;;;;8.25;4.25;;;18.40;99.90;;;;;;4861616;29;20054;-67
2022/08/04 03:54:35;;;;;;;8.75;4.97;;;18.40;99.90;;;;;;4862823;29;20045;-65
2022/08/04 04:01:06;;;;;;;6.88;4.40;;;18.30;99.90;;;;;;4836841;29;20096;-65
2022/08/04 04:04:15;;;;;;;7.53;4.43;;;18.60;99.90;;;;;;4843910;29;20072;-65
2022/08/04 04:07:18;;;;;;;7.03;4.20;;;18.30;99.90;;;;;;4860949;29;20045;-65
2022/08/04 04:09:59;;;;;;;6.65;4.28;;;18.30;99.90;;;;;;4862345;29;20508;-65
2022/08/04 04:12:30;;;;;;;5.00;4.50;;;18.30;99.90;;;;;;4858092;29;20068;-65
2022/08/04 04:15:20;;;;;;;7.03;4.65;;;18.40;99.90;;;;;;4860367;29;20076;-65
2022/08/04 04:18:10;;;;;;;7.97;5.60;;;18.40;99.90;;;;;;4845618;29;20113;-65
2022/08/04 04:20:50;;;;;;;6.07;4.57;;;18.40;99.90;;;;;;4861674;29;20125;-65
2022/08/04 04:23:50;;;;;;;7.07;4.97;;;18.50;99.90;;;;;;4862332;29;20064;-66
2022/08/04 04:26:36;;;;;;;6.65;5.47;;;18.50;99.90;;;;;;4862216;29;20100;-66
2022/08/04 04:29:25;;;;;;;7.80;4.78;;;18.50;99.90;;;;;;4830388;29;20061;-65
2022/08/04 04:32:10;;;;;;;8.77;4.80;;;18.50;99.90;;;;;;4862220;29;20113;-65
2022/08/04 04:34:48;;;;;;;7.32;4.85;;;18.50;99.90;;;;;;4861339;29;20081;-66
2022/08/04 04:37:36;;;;;;;7.78;5.20;;;18.50;99.90;;;;;;4844607;29;20160;-65
2022/08/04 04:40:38;;;;;;;6.68;5.07;;;18.60;99.90;;;;;;4861785;29;20217;-66
2022/08/04 04:43:53;;;;;;;8.38;4.95;;;18.60;99.90;;;;;;4845072;29;20054;-66
2022/08/04 04:46:36;;;;;;;7.35;4.82;;;18.70;99.90;;;;;;4860861;29;20053;-66
2022/08/04 04:49:08;;;;;;;6.82;5.25;;;18.30;99.90;;;;;;4845082;29;20057;-66
2022/08/04 04:51:49;;;;;;;10.20;5.25;;;18.60;99.90;;;;;;4859564;29;20057;-66
2022/08/04 04:54:24;;;;;;;7.45;5.47;;;18.80;99.90;;;;;;4844585;29;20117;-66
2022/08/04 04:57:10;;;;;;;10.82;5.00;;;18.80;99.90;;;;;;4847470;29;20399;-66
2022/08/04 04:59:40;;;;;;;8.55;5.45;;;18.90;99.90;;;;;;4859217;29;20061;-66
2022/08/04 05:02:25;;;;;;;6.95;5.07;;;18.90;99.90;;;;;;4860897;29;20375;-66
2022/08/04 05:05:00;;;;;;;7.07;5.05;;;18.90;99.90;;;;;;4858376;29;20060;-66
2022/08/04 05:08:08;;;;;;;10.85;5.18;;;19.00;99.90;;;;;;4842607;29;20057;-66
2022/08/04 05:11:15;;;;;;;10.07;5.20;;;19.00;99.90;;;;;;4846312;29;20727;-66
2022/08/04 05:13:46;;;;;;;6.82;4.78;;;19.10;99.90;;;;;;4845493;29;20077;-66
2022/08/04 05:16:25;;;;;;;6.90;5.60;;;19.20;99.90;;;;;;4859154;29;20134;-66
2022/08/04 05:19:17;;;;;;;10.85;5.95;;;19.30;99.90;;;;;;4858773;29;20772;-65
2022/08/04 05:21:43;;;;;;;;;;;19.30;99.90;;;;;;4840823;29;20061;-65
2022/08/04 05:24:12;;;;;;;9.30;6.60;;;19.40;99.90;;;;;;4848617;29;19975;-66
2022/08/04 05:26:49;;;;;;;8.90;5.82;;;19.50;99.90;;;;;;4836356;29;20053;-66
2022/08/04 05:29:35;;;;;;;11.85;7.20;;;19.60;99.90;;;;;;4851403;29;20072;-65
2022/08/04 05:32:06;;;;;;;11.32;6.88;;;19.60;99.90;;;;;;4857145;29;20491;-66
2022/08/04 05:34:42;;;;;;;12.27;6.63;;;19.70;99.90;;;;;;4839685;29;20464;-66
2022/08/04 05:37:15;;;;;;;11.30;6.25;;;19.80;99.90;;;;;;4851194;29;20509;-66
2022/08/04 05:39:48;;;;;;;10.82;6.75;;;19.80;99.90;;;;;;4854070;29;20056;-66
2022/08/04 05:42:15;;;;;;;11.65;7.13;;;19.90;99.90;;;;;;4853718;29;20456;-66
2022/08/04 05:44:42;;;;;;;12.18;7.20;;;20.00;99.90;;;;;;4858275;29;20130;-64
2022/08/04 05:47:11;;;;;;;14.57;7.75;;;20.30;99.90;;;;;;4858420;29;20137;-65
2022/08/04 05:49:40;;;;;;;8.68;6.55;;;20.90;99.90;;;;;;4859247;29;20061;-66
2022/08/04 05:52:08;;;;;;;9.95;6.78;;;21.60;99.90;;;;;;4858861;29;20050;-66
2022/08/04 05:54:35;;;;;;;11.32;7.32;;;22.20;99.90;;;;;;4859630;29;20053;-66
2022/08/04 05:57:05;;;;;;;12.27;6.50;;;22.60;99.90;;;;;;4839146;29;20555;-66
2022/08/04 05:59:33;;;;;;;13.18;6.88;;;22.70;99.90;;;;;;4860850;29;20057;-65
2022/08/04 06:02:01;;;;;;;14.63;7.60;;;22.90;99.90;;;;;;4827860;29;20064;-65
2022/08/04 06:04:34;;;;;;;9.63;7.53;;;23.00;99.90;;;;;;4860111;29;20061;-66
2022/08/04 06:06:59;;;;;;;12.07;7.28;;;23.20;99.90;;;;;;4842929;29;20053;-65
2022/08/04 06:09:25;;;;;;;10.23;6.78;;;23.70;99.90;;;;;;4859650;29;20053;-65
2022/08/04 06:11:52;;;;;;;11.07;7.07;;;24.10;99.90;;;;;;4843203;29;20083;-65
2022/08/04 06:14:21;;;;;;;12.63;6.35;;;24.60;99.90;;;;;;4859296;29;20088;-65
2022/08/04 06:16:49;;;;;;;9.45;6.65;;;24.90;99.90;;;;;;4859468;29;20562;-66
2022/08/04 06:19:16;;;;;;;9.63;6.43;;;25.10;99.90;;;;;;4858334;29;20060;-65
2022/08/04 06:21:47;;;;;;;8.13;6.47;;;25.20;99.90;;;;;;4858876;29;20476;-65
2022/08/04 06:24:17;;;;;;;8.87;6.40;;;25.20;99.90;;;;;;4860483;29;20052;-66
2022/08/04 06:26:44;;;;;;;8.43;6.47;;;25.30;99.90;;;;;;4847987;29;20073;-66
2022/08/04 06:29:19;;;;;;;11.63;6.68;;;24.90;99.90;;;;;;4851687;29;20057;-66
2022/08/04 06:31:56;;;;;;;12.48;6.50;;;24.60;99.90;;;;;;4820705;29;20065;-65
2022/08/04 06:34:24;;;;;;;9.07;6.07;;;24.30;99.90;;;;;;4858100;29;20046;-66
2022/08/04 06:36:50;;;;;;;12.55;6.72;;;24.10;99.90;;;;;;4859260;29;20068;-65
2022/08/04 06:39:17;;;;;;;11.60;6.40;;;23.90;99.90;;;;;;4860042;29;20057;-66
2022/08/04 06:41:43;;;;;;;9.10;5.70;;;23.80;99.90;;;;;;4858085;29;20051;-65
2022/08/04 06:44:10;;;;;;;8.63;5.65;;;23.70;99.90;;;;;;4841602;29;20149;-66
2022/08/04 06:46:39;;;;;;;9.02;6.63;;;23.70;99.90;;;;;;4860371;29;20144;-66
2022/08/04 06:49:05;;;;;;;11.05;5.75;;;23.70;99.90;;;;;;4843512;29;20357;-66
2022/08/04 06:51:33;;;;;;;9.45;6.80;;;23.80;99.90;;;;;;4859608;29;20057;-66
2022/08/04 06:53:59;;;;;;;10.73;6.68;;;23.90;99.90;;;;;;4859137;29;20521;-65
2022/08/04 06:56:26;;;;;;;10.98;6.15;;;23.90;99.90;;;;;;4857288;29;20141;-65
2022/08/04 06:58:53;;;;;;;11.23;6.50;;;24.00;99.90;;;;;;4859707;29;20089;-66
2022/08/04 07:01:20;;;;;;;13.70;6.40;;;24.10;99.90;;;;;;4863374;29;20551;-66
2022/08/04 07:03:46;;;;;;;11.93;5.25;;;24.20;99.90;;;;;;4862436;29;20492;-67
2022/08/04 07:06:13;;;;;;;11.15;5.60;;;24.40;99.90;;;;;;4863109;29;20041;-67
2022/08/04 07:08:39;;;;;;;11.68;5.85;;;24.50;99.90;;;;;;4862608;29;20105;-67
2022/08/04 07:11:05;;;;;;;9.52;5.50;;;24.60;99.90;;;;;;4863097;29;20053;-66
2022/08/04 07:13:31;;;;;;;8.80;5.38;;;24.70;99.90;;;;;;4831592;29;20105;-67
2022/08/04 07:15:59;;;;;;;11.13;5.25;;;24.70;99.90;;;;;;4862351;29;20049;-66
2022/08/04 07:18:25;;;;;;;8.20;4.93;;;24.80;99.90;;;;;;4863458;29;20147;-65
2022/08/04 07:20:51;;;;;;;8.98;5.57;;;24.90;99.90;;;;;;4861924;29;20476;-66
2022/08/04 07:23:25;;;;;;;14.20;5.60;;;25.00;99.90;;;;;;4863400;29;20083;-65
2022/08/04 07:25:57;;;;;;;9.15;4.85;;;25.00;99.90;;;;;;4859843;29;20038;-66
2022/08/04 07:28:26;;;;;;;;;;;25.10;99.90;;;;;;4862792;29;20093;-66
2022/08/04 07:30:53;;;;;;;7.43;4.30;;;25.10;99.90;;;;;;4861856;29;19928;-66
2022/08/04 07:33:20;;;;;;;6.40;4.10;;;25.20;99.90;;;;;;4862931;29;20114;-66
2022/08/04 07:35:49;;;;;;;12.30;5.50;;;25.10;99.90;;;;;;4845068;29;20467;-66
2022/08/04 07:38:14;;;;;;;8.75;4.85;;;25.40;99.90;;;;;;4843490;29;20068;-66
2022/08/04 07:40:40;;;;;;;7.70;4.47;;;25.50;99.90;;;;;;4841795;29;20559;-66
2022/08/04 07:43:07;;;;;;;7.85;4.45;;;25.60;99.90;;;;;;4844291;29;20053;-66
2022/08/04 07:45:33;;;;;;;6.70;4.82;;;25.70;99.90;;;;;;4827914;29;20090;-67
2022/08/04 07:47:59;;;;;;;11.50;4.30;;;25.80;99.90;;;;;;4843914;29;20089;-66
2022/08/04 07:50:26;;;;;;;8.10;4.30;;;25.80;99.90;;;;;;4849010;29;20050;-67
2022/08/04 07:52:52;;;;;;;10.43;3.90;;;25.80;99.90;;;;;;4851076;29;20053;-66
2022/08/04 07:55:19;;;;;;;10.18;3.72;;;25.90;99.90;;;;;;4845497;29;20046;-66
2022/08/04 07:57:44;;;;;;;6.50;3.67;;;26.00;99.90;;;;;;4848012;29;20050;-66
2022/08/04 08:00:13;;;;;;;7.80;3.65;;;26.00;99.90;;;;;;4844353;29;20483;-66
2022/08/04 08:02:40;;;;;;;7.75;4.07;;;26.10;99.90;;;;;;4843544;29;20219;-67
2022/08/04 08:05:09;;;;;;;7.35;3.72;;;26.30;99.90;;;;;;4848091;29;20061;-67
2022/08/04 08:07:35;;;;;;;7.80;3.58;;;26.40;99.90;;;;;;4820109;29;20392;-66
2022/08/04 08:10:00;;;;;;;7.95;3.70;;;26.40;99.90;;;;;;4824887;29;20139;-67
2022/08/04 08:12:27;;;;;;;6.95;3.40;;;26.50;99.90;;;;;;4842149;29;20180;-67
2022/08/04 08:14:53;;;;;;;7.68;3.30;;;26.50;99.90;;;;;;4842888;29;20100;-66
2022/08/04 08:17:18;;;;;;;7.10;2.90;;;26.60;99.90;;;;;;4857487;29;20081;-66
2022/08/04 08:19:44;;;;;;;8.45;3.47;;;26.70;99.90;;;;;;4836579;29;20425;-66
2022/08/04 08:22:10;;;;;;;8.73;3.25;;;26.90;99.90;;;;;;4845452;29;20049;-66
2022/08/04 08:24:36;;;;;;;6.40;2.88;;;27.00;99.90;;;;;;4849612;29;20399;-66
2022/08/04 08:27:03;;;;;;;6.97;2.95;;;27.10;99.90;;;;;;4842375;29;20066;-66
2022/08/04 08:29:29;;;;;;;9.73;3.05;;;27.40;99.90;;;;;;4842490;29;20058;-66
2022/08/04 08:31:55;;;;;;;5.50;2.60;;;27.60;99.90;;;;;;4839076;29;20058;-66
2022/08/04 08:34:21;;;;;;;8.48;2.85;;;27.80;99.90;;;;;;4843884;29;20069;-67
2022/08/04 08:36:56;;;;;;;5.65;2.30;;;27.90;99.90;;;;;;4825581;29;20054;-66
2022/08/04 08:39:33;;;;;;;7.57;3.05;;;28.00;99.90;;;;;;4843334;29;20058;-66
2022/08/04 08:42:27;;;;;;;5.05;3.08;;;28.00;99.90;;;;;;4843171;29;20107;-66
2022/08/04 08:45:35;;;;;;;5.65;2.40;;;28.00;99.90;;;;;;4842813;29;20543;-66
2022/08/04 08:48:28;;;;;;;8.73;2.60;;;28.10;99.90;;;;;;4841809;29;20080;-66
2022/08/04 08:51:31;;;;;;;11.55;2.72;;;28.20;99.90;;;;;;4842794;29;20054;-66
2022/08/04 08:54:34;;;;;;;8.13;2.88;;;28.20;99.90;;;;;;4842793;29;20061;-66
2022/08/04 08:57:37;;;;;;;4.60;2.10;;;28.20;99.90;;;;;;4842997;29;20146;-66
2022/08/04 09:00:15;;;;;;;8.40;2.50;;;28.20;99.90;;;;;;4842856;29;20528;-67
2022/08/04 09:03:05;;;;;;;7.47;2.45;;;28.20;99.90;;;;;;4842432;29;20061;-66
2022/08/04 09:06:09;;;;;;;6.10;2.55;;;28.30;99.90;;;;;;4842883;29;20057;-66
2022/08/04 09:08:50;;;;;;;6.75;2.72;;;28.40;99.90;;;;;;4849397;29;20049;-66
2022/08/04 09:11:21;;;;;;;5.93;2.47;;;28.50;99.90;;;;;;4844021;29;20080;-66
2022/08/04 09:14:16;;;;;;;4.50;2.57;;;28.60;99.90;;;;;;4856836;29;20052;-66
2022/08/04 09:16:50;;;;;;;8.57;2.47;;;28.80;99.90;;;;;;4860982;29;20290;-66
2022/08/04 09:19:34;;;;;;;7.25;2.55;;;28.90;99.90;;;;;;4861412;29;20053;-66
2022/08/04 09:22:19;;;;;;;7.70;2.58;;;29.00;99.90;;;;;;4834087;29;20100;-66
2022/08/04 09:25:30;;;;;;;4.88;2.65;;;29.00;99.90;;;;;;4811440;29;20053;-66
2022/08/04 09:28:17;;;;;;;6.63;2.65;;;29.00;99.90;;;;;;4767851;30;20099;-66
2022/08/04 09:31:06;;;;;;;7.28;2.70;;;29.10;99.90;;;;;;4768049;30;20094;-67
2022/08/04 09:33:43;;;;;;;6.63;2.72;;;29.20;99.90;;;;;;4820651;29;20067;-66
2022/08/04 09:36:34;;;;;;;10.68;3.17;;;29.40;99.90;;;;;;4822542;29;20062;-66
2022/08/04 09:39:13;;;;;;;4.80;3.03;;;29.50;99.90;;;;;;4824623;29;20054;-66
2022/08/04 09:42:10;;;;;;;6.25;3.13;;;29.50;99.90;;;;;;4834993;29;20054;-66
2022/08/04 09:44:59;;;;;;;10.88;3.50;;;29.50;99.90;;;;;;4856496;29;20050;-66
2022/08/04 09:47:40;;;;;;;9.48;2.70;;;29.40;99.90;;;;;;4871940;29;20144;-66
2022/08/04 09:53:54;;;;;;;6.25;3.78;;;29.40;99.90;;;;;;4824440;29;20050;-66
2022/08/04 09:56:38;;;;;;;6.00;3.97;;;29.50;99.90;;;;;;4840768;29;20053;-66
2022/08/04 09:59:39;;;;;;;8.70;3.97;;;29.30;99.90;;;;;;4842142;29;20435;-66
2022/08/04 10:02:12;;;;;;;9.77;4.27;;;29.20;99.90;;;;;;4824052;29;20058;-66
2022/08/04 10:05:05;;;;;;;7.75;3.72;;;29.00;99.90;;;;;;4833934;29;20472;-66
2022/08/04 10:07:39;;;;;;;11.43;3.78;;;29.00;99.90;;;;;;4832243;29;20403;-66
2022/08/04 10:10:27;;;;;;;6.40;4.35;;;28.80;99.90;;;;;;4838138;29;20496;-66
2022/08/04 10:13:16;;;;;;;7.32;3.88;;;28.60;99.90;;;;;;4854403;29;20484;-66
2022/08/04 10:16:10;;;;;;;7.07;3.20;;;28.50;99.90;;;;;;4839850;29;20426;-66
2022/08/04 10:18:44;;;;;;;12.23;3.50;;;28.40;99.90;;;;;;4842539;29;20048;-67
2022/08/04 10:21:21;;;;;;;8.57;3.72;;;28.50;99.90;;;;;;4840370;29;20057;-67
2022/08/04 10:24:06;;;;;;;6.75;3.40;;;28.60;99.90;;;;;;4842205;29;20136;-66
2022/08/04 10:26:47;;;;;;;7.97;3.20;;;28.70;99.90;;;;;;4840896;29;20054;-66
2022/08/04 10:29:25;;;;;;;8.18;2.75;;;28.70;99.90;;;;;;4842153;29;20057;-66
2022/08/04 10:31:59;;;;;;;6.25;2.95;;;28.80;99.90;;;;;;4843913;29;20058;-66
2022/08/04 10:34:35;;;;;;;9.32;3.22;;;28.90;99.90;;;;;;4842782;29;20138;-67
2022/08/04 10:37:21;;;;;;;8.27;3.05;;;29.00;99.90;;;;;;4844274;29;20054;-66
2022/08/04 10:42:59;;;;;;;8.52;2.65;;;29.00;99.90;;;;;;4845560;29;20399;-66
2022/08/04 10:45:35;;;;;;;7.47;2.05;;;29.00;99.90;;;;;;4845277;29;20106;-67
2022/08/04 10:48:18;;;;;;;3.85;2.05;;;29.00;99.90;;;;;;4844607;29;20093;-67
2022/08/04 10:51:10;;;;;;;5.85;2.92;;;29.00;99.90;;;;;;4848961;29;20375;-66
2022/08/04 10:53:37;;;;;;;2.92;2.00;;;29.00;99.90;;;;;;4838790;29;20420;-66
2022/08/04 10:56:18;;;;;;;4.55;2.10;;;29.00;99.90;;;;;;4844321;29;20840;-66
2022/08/04 10:58:55;;;;;;;5.87;1.93;;;29.10;99.90;;;;;;4854554;29;20100;-66
2022/08/04 11:01:43;;;;;;;5.88;2.20;;;29.00;99.90;;;;;;4859469;29;20814;-67
2022/08/04 11:04:20;;;;;;;7.28;1.98;;;29.20;99.90;;;;;;4863770;29;20050;-66
2022/08/04 11:06:47;;;;;;;5.60;2.08;;;29.20;99.90;;;;;;4848920;29;20101;-66
2022/08/04 11:09:15;;;;;;;4.97;1.52;;;29.10;99.90;;;;;;4853286;29;20097;-67
2022/08/04 11:11:45;;;;;;;5.95;1.60;;;29.10;99.60;;;;;;4863509;29;20053;-66
2022/08/04 11:14:15;;;;;;;5.80;2.22;;;29.10;99.20;;;;;;4846689;29;20042;-66
2022/08/04 11:16:50;;;;;;;5.68;2.20;;;29.20;99.00;;;;;;4863336;29;20767;-66
2022/08/04 11:19:53;;;;;;;5.90;2.30;;;29.30;99.90;;;;;;4851902;29;20129;-66
2022/08/04 11:22:25;;;;;;;5.30;2.13;;;29.40;99.90;;;;;;4826168;29;20138;-66
2022/08/04 11:25:19;;;;;;;6.03;2.60;;;29.40;99.90;;;;;;4829446;29;20141;-66
2022/08/04 11:28:12;;;;;;;8.05;1.70;;;29.20;99.90;;;;;;4862137;29;20140;-66
2022/08/04 11:31:01;;;;;;;6.85;1.85;;;29.00;99.90;;;;;;4863070;29;20053;-66
2022/08/04 11:34:06;;;;;;;5.95;1.77;;;28.90;99.90;;;;;;4861961;29;20057;-66
2022/08/04 11:36:53;;;;;;;2.92;1.58;;;28.80;99.90;;;;;;4845712;29;20412;-66
2022/08/04 11:39:37;;;;;;;8.25;1.60;;;28.80;99.90;;;;;;4844648;29;20080;-67
2022/08/04 11:42:26;;;;;;;7.45;1.83;;;28.90;99.90;;;;;;4844534;29;20072;-66
2022/08/04 11:45:05;;;;;;;4.93;2.00;;;28.90;99.80;;;;;;4842953;29;20061;-67
2022/08/04 11:47:42;;;;;;;6.55;2.40;;;28.70;99.40;;;;;;4842675;29;20122;-67
2022/08/04 11:50:20;;;;;;;9.90;1.90;;;28.60;99.90;;;;;;4847532;29;20050;-67
2022/08/04 11:52:47;;;;;;;7.40;1.88;;;28.50;99.90;;;;;;4852917;29;20054;-66
2022/08/04 11:55:16;;;;;;;5.57;2.10;;;28.40;99.90;;;;;;4843874;29;20118;-66
2022/08/04 11:57:43;;;;;;;6.40;1.70;;;28.30;99.90;;;;;;4843547;29;20065;-67
2022/08/04 12:00:13;;;;;;;5.88;2.00;;;28.00;99.90;;;;;;4857390;29;20463;-67
2022/08/04 12:03:00;;;;;;;3.30;1.88;;;27.90;99.90;;;;;;4839878;29;20057;-67
2022/08/04 12:05:36;;;;;;;3.15;1.63;;;27.70;99.90;;;;;;4825545;29;20569;-66
2022/08/04 12:08:22;;;;;;;2.92;1.48;;;27.60;99.90;;;;;;4825836;29;20062;-66
2022/08/04 12:11:20;;;;;;;5.18;1.50;;;27.50;99.90;;;;;;4830334;29;20050;-66
2022/08/04 12:14:11;;;;;;;4.80;1.30;;;27.50;99.90;;;;;;4844004;29;20100;-67
2022/08/04 12:16:59;;;;;;;3.25;1.70;;;27.40;99.90;;;;;;4843541;29;20133;-66
2022/08/04 12:19:45;;;;;;;5.03;1.50;;;27.20;99.90;;;;;;4847551;29;20053;-66
2022/08/04 12:22:16;;;;;;;4.13;1.33;;;27.20;99.90;;;;;;4844782;29;20060;-66
2022/08/04 12:24:45;;;;;;;2.72;1.38;;;27.10;99.90;;;;;;4845124;29;20054;-66
2022/08/04 12:27:23;;;;;;;4.30;1.25;;;27.00;99.90;;;;;;4852656;29;20125;-66
2022/08/04 12:29:50;;;;;;;2.92;1.50;;;26.90;99.90;;;;;;4860740;29;20061;-66
2022/08/04 12:32:33;;;;;;;4.43;1.55;;;26.70;99.90;;;;;;4860712;29;20057;-67
2022/08/04 12:35:07;;;;;;;2.28;1.27;;;26.50;99.90;;;;;;4844809;29;20491;-66
2022/08/04 12:37:42;;;;;;;2.80;1.40;;;26.40;99.90;;;;;;4861224;29;20064;-66
2022/08/04 12:40:29;;;;;;;2.53;1.40;;;26.20;99.90;;;;;;4844146;29;20146;-66
2022/08/04 12:42:58;;;;;;;3.10;1.40;;;26.10;99.90;;;;;;4859912;29;20042;-66
2022/08/04 12:45:25;;;;;;;3.72;1.63;;;26.00;99.90;;;;;;4860398;29;20088;-66
2022/08/04 12:47:53;;;;;;;6.25;1.40;;;26.00;99.90;;;;;;4861906;29;20132;-66
2022/08/04 12:50:19;;;;;;;2.97;1.60;;;26.00;99.90;;;;;;4861679;29;20067;-66
2022/08/04 12:52:53;;;;;;;2.42;1.42;;;26.00;99.90;;;;;;4861317;29;20063;-66
2022/08/04 12:55:21;;;;;;;7.25;1.65;;;26.00;99.90;;;;;;4845072;29;20061;-66
2022/08/04 12:57:49;;;;;;;4.00;1.63;;;26.00;99.90;;;;;;4843244;29;20057;-66
2022/08/04 13:00:52;;;;;;;3.00;1.60;;;26.00;99.90;;;;;;4860748;29;20050;-66
2022/08/04 13:03:19;;;;;;;3.45;1.30;;;26.00;99.90;;;;;;4821824;29;20172;-66
2022/08/04 13:05:46;;;;;;;1.75;1.17;;;26.00;99.90;;;;;;4859663;29;20430;-66
2022/08/04 13:08:14;;;;;;;3.03;1.00;;;26.10;99.90;;;;;;4860271;29;20057;-66
2022/08/04 13:10:43;;;;;;;1.55;1.10;;;26.10;99.90;;;;;;4861294;29;20074;-66
2022/08/04 13:13:20;;;;;;;5.13;1.33;;;26.20;99.90;;;;;;4844982;29;20057;-66
2022/08/04 13:15:58;;;;;;;1.88;1.20;;;26.40;99.90;;;;;;4861829;29;20216;-66
2022/08/04 13:18:26;;;;;;;2.25;1.30;;;26.50;99.90;;;;;;4860788;29;20049;-66
2022/08/04 13:20:52;;;;;;;4.20;1.40;;;26.70;99.90;;;;;;4827557;29;20081;-64
2022/08/04 13:23:19;;;;;;;2.17;1.30;;;26.90;99.90;;;;;;4860742;29;20108;-65
2022/08/04 13:25:50;;;;;;;3.20;1.13;;;27.00;99.90;;;;;;4843989;29;20093;-65
2022/08/04 13:28:21;;;;;;;2.78;1.25;;;27.10;99.90;;;;;;4861373;29;20057;-65
2022/08/04 13:30:53;;;;;;;4.45;2.00;;;27.20;99.90;;;;;;4828368;29;20057;-64
2022/08/04 13:33:19;;;;;;;1.20;0.90;;;27.30;99.90;;;;;;4855462;29;20088;-65
2022/08/04 13:35:46;;;;;;;1.80;1.15;;;27.40;99.90;;;;;;4853880;29;20123;-65
2022/08/04 13:38:15;;;;;;;2.72;1.58;;;27.50;99.90;;;;;;4847712;29;20136;-64
2022/08/04 13:41:40;;;;;;;4.05;1.20;;;27.50;99.90;;;;;;4825559;29;20050;-67
2022/08/04 13:44:08;;;;;;;3.55;1.35;;;27.50;99.90;;;;;;4841076;29;20050;-66
2022/08/04 13:46:43;;;;;;;3.85;1.20;;;27.60;99.90;;;;;;4841330;29;20041;-66
2022/08/04 13:50:00;;;;;;;2.67;1.30;;;27.60;99.90;;;;;;4839377;29;20121;-66
2022/08/04 13:52:26;;;;;;;3.83;1.38;;;27.70;99.90;;;;;;4847288;29;20046;-66
2022/08/04 13:54:51;;;;;;;1.90;1.02;;;27.80;99.90;;;;;;4830379;29;20060;-66
2022/08/04 13:57:30;;;;;;;2.17;1.70;;;27.80;99.90;;;;;;4860603;29;20049;-66
2022/08/04 14:00:08;;;;;;;1.75;1.25;;;27.70;99.80;;;;;;4860502;29;20368;-66
2022/08/04 14:02:44;;;;;;;2.58;1.20;;;27.60;99.90;;;;;;4843894;29;20483;-66
2022/08/04 14:05:20;;;;;;;1.48;0.98;;;27.50;99.90;;;;;;4859212;29;20057;-66
2022/08/04 14:08:01;;;;;;;2.78;1.25;;;27.50;99.90;;;;;;4816292;29;20050;-66